Toes In The Water — WDJ2495 — position and weather

sailwx.info

Track history (hours):
 
Tides and Currents Weather Stations Pressure Air Temp Water Temp Dewpoint Dewpoint Depression Visibility Wind Speed Wind Dir Waves Ship Positions

Toes In The Water

Owner: DKC Sailing LLC, Boxford, MA. More information available from US FCC via Universal Licensing System.

Last reported at 2018-Jul-12 13:09 UTC. Time now 2018-Aug-14 07:03 UTC.
Position N 25°42' W 079°56'.
Warning: this ship's position is 32 days out of date.

Length 14 m.

Type: Sailing vessel. MMSI: 367758910.

Date/timePositionNaut miles runAvg speedWind from/ knotsBaromVisibWave heightAir tempDewpointWater temp
2018-Jul-12 13:09N 25°42' W 079°56'1 5.4
2018-Jul-12 12:56N 25°42' W 079°57'3 6.2
2018-Jul-12 12:26N 25°40' W 080°00'2 5.8
2018-Jul-12 12:00N 25°40' W 080°03'3 5.2
2018-Jul-12 11:30N 25°39' W 080°06'3 5.0
2018-Jul-12 10:57N 25°39' W 080°09'2 4.1
2018-Jul-12 10:30N 25°40' W 080°10'0 0.3
2018-Jul-12 09:54N 25°40' W 080°10'0 0.0
2018-Jul-12 09:30N 25°40' W 080°10'0 0.0
2018-Jul-12 08:57N 25°40' W 080°10'0 0.0
2018-Jul-12 08:30N 25°40' W 080°10'0 0.0
2018-Jul-12 08:00N 25°40' W 080°10'0 0.0
2018-Jul-12 07:30N 25°40' W 080°10'0 0.0
2018-Jul-12 07:00N 25°40' W 080°10'0 0.0
2018-Jul-12 06:30N 25°40' W 080°10'0 0.0
2018-Jul-12 05:21N 25°40' W 080°10'0 0.0
2018-Jul-12 05:00N 25°40' W 080°10'0 0.0
2018-Jul-12 04:30N 25°40' W 080°10'0 0.0
2018-Jul-12 03:09N 25°40' W 080°10'0 0.0
2018-Jul-12 03:00N 25°40' W 080°10'0 0.0
2018-Jul-12 02:30N 25°40' W 080°10'0 0.0
2018-Jul-12 01:57N 25°40' W 080°10'0 0.0
2018-Jul-12 01:30N 25°40' W 080°10'0 0.0
2018-Jul-12 01:00N 25°40' W 080°10'0 0.0
2018-Jul-12 00:30N 25°40' W 080°10'0 0.1
2018-Jul-11 23:57N 25°40' W 080°10'0 0.0
2018-Jul-11 23:27N 25°40' W 080°10'0 0.0
2018-Jul-11 23:00N 25°40' W 080°10'0 0.0
2018-Jul-11 22:27N 25°40' W 080°10'0 0.0
2018-Jul-11 21:41N 25°40' W 080°10'0 1.3
2018-Jul-11 21:30N 25°41' W 080°10'1 2.9
2018-Jul-11 21:00N 25°39' W 080°09'2 4.4
2018-Jul-11 20:30N 25°41' W 080°08'3 6.5
2018-Jul-11 20:00N 25°44' W 080°07'3 6.0
2018-Jul-11 19:28N 25°47' W 080°06'3 5.9
2018-Jul-11 19:00N 25°50' W 080°06'3 6.1
2018-Jul-11 18:30N 25°53' W 080°06'3 5.9
2018-Jul-11 18:00N 25°56' W 080°06'4 6.4
2018-Jul-11 17:23N 26°00' W 080°06'3 6.7
2018-Jul-11 17:00N 26°03' W 080°06'3 5.7
2018-Jul-11 16:30N 26°06' W 080°07'2 4.4
2018-Jul-11 16:00N 26°04' W 080°08'0 0.4
2018-Jul-11 15:21N 26°04' W 080°08'0 0.0
2018-Jul-11 14:58N 26°04' W 080°08'0 0.0
2018-Jul-11 14:28N 26°04' W 080°08'0 0.0
2018-Jul-11 13:58N 26°04' W 080°08'0 0.0
2018-Jul-11 13:28N 26°04' W 080°08'0 0.0
2018-Jul-11 12:58N 26°04' W 080°08'0 0.0
2018-Jul-11 12:28N 26°04' W 080°08'0 0.0
2018-Jul-11 11:58N 26°04' W 080°08'0 0.0
2018-Jul-11 11:28N 26°04' W 080°08'0 0.0
2018-Jul-11 10:58N 26°04' W 080°08'0 0.0
2018-Jul-11 10:19N 26°04' W 080°08'0 0.0
2018-Jul-11 09:49N 26°04' W 080°08'0 0.0
2018-Jul-11 09:22N 26°04' W 080°08'0 0.0
2018-Jul-11 08:52N 26°04' W 080°08'0 0.0
2018-Jul-11 08:19N 26°04' W 080°08'0 0.0
2018-Jul-11 07:52N 26°04' W 080°08'0 0.0
2018-Jul-11 07:22N 26°04' W 080°08'0 0.0
2018-Jul-11 06:52N 26°04' W 080°08'0 0.0
2018-Jul-11 06:22N 26°04' W 080°08'0 0.0
2018-Jul-11 05:55N 26°04' W 080°08'0 0.0
2018-Jul-11 05:25N 26°04' W 080°08'0 0.0
2018-Jul-11 04:55N 26°04' W 080°08'0 0.0
2018-Jul-11 04:25N 26°04' W 080°08'0 0.0
2018-Jul-11 03:55N 26°04' W 080°08'0 0.0
2018-Jul-11 03:25N 26°04' W 080°08'0 0.0
2018-Jul-11 02:58N 26°04' W 080°08'0 0.0
2018-Jul-11 02:28N 26°04' W 080°08'0 0.0
2018-Jul-11 01:58N 26°04' W 080°08'0 0.0
2018-Jul-11 01:28N 26°04' W 080°08'0 0.0
2018-Jul-11 00:58N 26°04' W 080°08'0 0.0
2018-Jul-11 00:28N 26°04' W 080°08'0 0.0
2018-Jul-10 23:58N 26°04' W 080°08'0 0.0
2018-Jul-10 23:28N 26°04' W 080°08'0 0.0
2018-Jul-10 22:58N 26°04' W 080°08'0 0.0
2018-Jul-10 22:28N 26°04' W 080°08'0 0.0
2018-Jul-10 21:58N 26°04' W 080°08'0 0.0
2018-Jul-10 21:28N 26°04' W 080°08'0 0.0
2018-Jul-10 20:58N 26°04' W 080°08'0 0.0
2018-Jul-10 20:19N 26°04' W 080°08'0 0.0
2018-Jul-10 19:49N 26°04' W 080°08'0 0.0
2018-Jul-10 19:19N 26°04' W 080°08'0 0.0
2018-Jul-10 18:52N 26°04' W 080°08'0 0.0
2018-Jul-10 18:22N 26°04' W 080°08'0 0.0
2018-Jul-10 17:52N 26°04' W 080°08'0 0.0
2018-Jul-10 17:22N 26°04' W 080°08'0 0.0
2018-Jul-10 16:52N 26°04' W 080°08'0 0.0
2018-Jul-10 16:22N 26°04' W 080°08'0 0.0
2018-Jul-10 15:55N 26°04' W 080°08'0 0.0
2018-Jul-10 15:25N 26°04' W 080°08'0 0.0
2018-Jul-10 14:55N 26°04' W 080°08'0 0.0
2018-Jul-10 14:25N 26°04' W 080°08'0 0.0
2018-Jul-10 13:55N 26°04' W 080°08'0 0.0
2018-Jul-10 13:25N 26°04' W 080°08'0 0.0
2018-Jul-10 12:58N 26°04' W 080°08'0 0.0
2018-Jul-10 12:28N 26°04' W 080°08'0 0.0
2018-Jul-10 11:58N 26°04' W 080°08'0 0.0
2018-Jul-10 11:19N 26°04' W 080°08'0 0.0
2018-Jul-10 10:52N 26°04' W 080°08'0 0.0
2018-Jul-10 10:25N 26°04' W 080°08'0 0.0
2018-Jul-10 09:55N 26°04' W 080°08'0 0.0
2018-Jul-10 09:25N 26°04' W 080°08'0 0.0
2018-Jul-10 08:55N 26°04' W 080°08'0 0.0
2018-Jul-10 08:25N 26°04' W 080°08'0 0.0
2018-Jul-10 07:55N 26°04' W 080°08'0 0.0
2018-Jul-10 07:28N 26°04' W 080°08'0 0.0
2018-Jul-10 06:58N 26°04' W 080°08'0 0.0
2018-Jul-10 06:28N 26°04' W 080°08'0 0.0
2018-Jul-10 05:58N 26°04' W 080°08'0 0.0
2018-Jul-10 05:28N 26°04' W 080°08'0 0.0
2018-Jul-10 04:58N 26°04' W 080°08'0 0.0
2018-Jul-10 04:28N 26°04' W 080°08'0 0.0
2018-Jul-10 03:58N 26°04' W 080°08'0 0.0
2018-Jul-10 03:28N 26°04' W 080°08'0 0.0
2018-Jul-10 02:49N 26°04' W 080°08'0 0.0
2018-Jul-10 02:28N 26°04' W 080°08'0 0.0
2018-Jul-10 01:58N 26°04' W 080°08'0 0.0
2018-Jul-10 01:28N 26°04' W 080°08'0 0.0
2018-Jul-10 00:58N 26°04' W 080°08'0 0.0
2018-Jul-10 00:16N 26°04' W 080°08'0 0.0
2018-Jul-09 23:49N 26°04' W 080°08'0 0.0
2018-Jul-09 23:22N 26°04' W 080°08'0 0.0
2018-Jul-09 22:52N 26°04' W 080°08'0 0.0
2018-Jul-09 22:22N 26°04' W 080°08'0 0.0
2018-Jul-09 21:52N 26°04' W 080°08'0 0.0
2018-Jul-09 21:22N 26°04' W 080°08'0 0.0
2018-Jul-09 20:52N 26°04' W 080°08'0 0.0
2018-Jul-09 20:25N 26°04' W 080°08'0 0.0
2018-Jul-09 19:55N 26°04' W 080°08'0 0.0
2018-Jul-09 19:25N 26°04' W 080°08'0 0.0
2018-Jul-09 18:55N 26°04' W 080°08'0 0.0
2018-Jul-09 18:25N 26°04' W 080°08'0 0.0
2018-Jul-09 17:55N 26°04' W 080°08'0 0.0
2018-Jul-09 17:28N 26°04' W 080°08'0 0.0
2018-Jul-09 16:58N 26°04' W 080°08'0 0.0
2018-Jul-09 16:28N 26°04' W 080°08'0 0.0
2018-Jul-09 15:58N 26°04' W 080°08'0 0.0
2018-Jul-09 15:25N 26°04' W 080°08'0 0.0
2018-Jul-09 14:58N 26°04' W 080°08'0 0.0
2018-Jul-09 14:28N 26°04' W 080°08'0 0.0
2018-Jul-09 13:58N 26°04' W 080°08'0 0.0
2018-Jul-09 13:28N 26°04' W 080°08'0 0.0
2018-Jul-09 12:58N 26°04' W 080°08'0 0.0
2018-Jul-09 12:28N 26°04' W 080°08'0 0.0
2018-Jul-09 11:58N 26°04' W 080°08'0 0.0
2018-Jul-09 11:28N 26°04' W 080°08'0 0.0
2018-Jul-09 10:58N 26°04' W 080°08'0 0.0
2018-Jul-09 10:19N 26°04' W 080°08'0 0.0
2018-Jul-09 09:49N 26°04' W 080°08'0 0.0
2018-Jul-09 09:22N 26°04' W 080°08'0 0.0
2018-Jul-09 08:52N 26°04' W 080°08'0 0.0
2018-Jul-09 08:22N 26°04' W 080°08'0 0.0
2018-Jul-09 07:52N 26°04' W 080°08'0 0.0
2018-Jul-09 07:22N 26°04' W 080°08'0 0.0
2018-Jul-09 06:55N 26°04' W 080°08'0 0.0
2018-Jul-09 06:25N 26°04' W 080°08'0 0.0
2018-Jul-09 05:55N 26°04' W 080°08'0 0.0
2018-Jul-09 05:25N 26°04' W 080°08'0 0.0
2018-Jul-09 04:55N 26°04' W 080°08'0 0.0
2018-Jul-09 04:22N 26°04' W 080°08'0 0.0
2018-Jul-09 03:58N 26°04' W 080°08'0 0.0
2018-Jul-09 03:28N 26°04' W 080°08'0 0.0
2018-Jul-09 02:58N 26°04' W 080°08'0 0.0
2018-Jul-09 02:28N 26°04' W 080°08'0 0.0
2018-Jul-09 01:58N 26°04' W 080°08'0 0.0
2018-Jul-09 01:28N 26°04' W 080°08'0 0.0
2018-Jul-09 00:58N 26°04' W 080°08'0 0.0
2018-Jul-09 00:28N 26°04' W 080°08'0 0.0
2018-Jul-08 23:58N 26°04' W 080°08'0 0.0
2018-Jul-08 23:28N 26°04' W 080°08'0 0.0
2018-Jul-08 22:58N 26°04' W 080°08'1 2.4
2018-Jul-08 22:30N 26°04' W 080°07'2 5.0
2018-Jul-08 22:00N 26°06' W 080°06'1 2.1
2018-Jul-08 21:29N 26°08' W 080°06'0 0.0
2018-Jul-08 20:59N 26°08' W 080°06'2 3.7
2018-Jul-08 20:26N 26°10' W 080°05'1 2.4
2018-Jul-08 19:55N 26°08' W 080°06'2 4.4
2018-Jul-08 19:25N 26°06' W 080°06'1 2.9
2018-Jul-08 18:55N 26°05' W 080°07'2 3.7
2018-Jul-08 18:25N 26°04' W 080°08'0 0.0
2018-Jul-08 17:55N 26°04' W 080°08'0 0.0
2018-Jul-08 17:25N 26°04' W 080°08'0 0.0
2018-Jul-08 16:55N 26°04' W 080°08'0 0.0
2018-Jul-08 16:28N 26°04' W 080°08'0 0.0
2018-Jul-08 15:58N 26°04' W 080°08'0 0.0
2018-Jul-08 15:28N 26°04' W 080°08'0 0.0
2018-Jul-08 14:58N 26°04' W 080°08'0 0.0
2018-Jul-08 14:28N 26°04' W 080°08'0 0.0
2018-Jul-08 13:58N 26°04' W 080°08'0 0.0
2018-Jul-08 13:28N 26°04' W 080°08'0 0.0
2018-Jul-08 12:58N 26°04' W 080°08'0 0.0
2018-Jul-08 12:28N 26°04' W 080°08'0 0.0
2018-Jul-08 11:58N 26°04' W 080°08'0 0.0
2018-Jul-08 11:28N 26°04' W 080°08'0 0.0
2018-Jul-08 10:58N 26°04' W 080°08'0 0.0
2018-Jul-08 10:19N 26°04' W 080°08'0 0.0
2018-Jul-08 09:58N 26°04' W 080°08'0 0.0
2018-Jul-08 09:19N 26°04' W 080°08'0 0.0
2018-Jul-08 08:49N 26°04' W 080°08'0 0.0
2018-Jul-08 08:16N 26°04' W 080°08'0 0.0
2018-Jul-08 07:52N 26°04' W 080°08'0 0.0
2018-Jul-08 07:22N 26°04' W 080°08'0 0.0
2018-Jul-08 06:52N 26°04' W 080°08'0 0.0
2018-Jul-08 06:22N 26°04' W 080°08'0 0.0
2018-Jul-08 05:52N 26°04' W 080°08'0 0.0
2018-Jul-08 05:25N 26°04' W 080°08'0 0.0
2018-Jul-08 04:55N 26°04' W 080°08'0 0.0
2018-Jul-08 04:25N 26°04' W 080°08'0 0.0
2018-Jul-08 03:55N 26°04' W 080°08'0 0.0
2018-Jul-08 03:25N 26°04' W 080°08'0 0.0
2018-Jul-08 02:55N 26°04' W 080°08'0 0.0
2018-Jul-08 02:28N 26°04' W 080°08'0 0.0
2018-Jul-08 01:58N 26°04' W 080°08'0 0.0
2018-Jul-08 01:28N 26°04' W 080°08'0 0.0
2018-Jul-08 00:58N 26°04' W 080°08'0 0.0
2018-Jul-08 00:28N 26°04' W 080°08'0 0.0
2018-Jul-07 23:58N 26°04' W 080°08'0 0.0
2018-Jul-07 23:28N 26°04' W 080°08'0 0.0
2018-Jul-07 22:58N 26°04' W 080°08'0 0.0
2018-Jul-07 22:28N 26°04' W 080°08'0 0.0
2018-Jul-07 21:58N 26°04' W 080°08'0 0.0
2018-Jul-07 21:19N 26°04' W 080°08'0 0.0
2018-Jul-07 20:58N 26°04' W 080°08'0 0.0
2018-Jul-07 20:28N 26°04' W 080°08'0 0.0
2018-Jul-07 19:49N 26°04' W 080°08'0 0.0
2018-Jul-07 19:19N 26°04' W 080°08'0 0.0
2018-Jul-07 18:49N 26°04' W 080°08'0 0.0
2018-Jul-07 18:22N 26°04' W 080°08'0 0.0
2018-Jul-07 17:52N 26°04' W 080°08'0 0.0
2018-Jul-07 17:22N 26°04' W 080°08'0 0.0
2018-Jul-07 16:52N 26°04' W 080°08'0 0.0
2018-Jul-07 16:22N 26°04' W 080°08'0 0.0
2018-Jul-07 15:52N 26°04' W 080°08'0 0.0
2018-Jul-07 15:25N 26°04' W 080°08'0 0.0
2018-Jul-07 14:55N 26°04' W 080°08'0 0.0
2018-Jul-07 14:25N 26°04' W 080°08'0 0.0
2018-Jul-07 13:55N 26°04' W 080°08'0 0.0
2018-Jul-07 13:25N 26°04' W 080°08'0 0.0
2018-Jul-07 12:55N 26°04' W 080°08'0 0.0
2018-Jul-07 12:28N 26°04' W 080°08'0 0.0
2018-Jul-07 11:58N 26°04' W 080°08'0 0.0
2018-Jul-07 11:28N 26°04' W 080°08'0 0.0
2018-Jul-07 10:58N 26°04' W 080°08'0 0.0
2018-Jul-07 10:28N 26°04' W 080°08'0 0.0
2018-Jul-07 09:58N 26°04' W 080°08'0 0.0
2018-Jul-07 09:28N 26°04' W 080°08'0 0.0
2018-Jul-07 08:58N 26°04' W 080°08'0 0.0
2018-Jul-07 08:28N 26°04' W 080°08'0 0.0
2018-Jul-07 07:58N 26°04' W 080°08'0 0.0
2018-Jul-07 07:28N 26°04' W 080°08'0 0.0
2018-Jul-07 06:49N 26°04' W 080°08'0 0.0
2018-Jul-07 06:28N 26°04' W 080°08'0 0.0
2018-Jul-07 05:49N 26°04' W 080°08'0 0.0
2018-Jul-07 05:19N 26°04' W 080°08'0 0.0
2018-Jul-07 04:49N 26°04' W 080°08'0 0.0
2018-Jul-07 04:22N 26°04' W 080°08'0 0.0
2018-Jul-07 03:52N 26°04' W 080°08'0 0.0
2018-Jul-07 03:22N 26°04' W 080°08'0 0.0
2018-Jul-07 02:52N 26°04' W 080°08'0 0.0
2018-Jul-07 02:22N 26°04' W 080°08'0 0.0
2018-Jul-07 01:49N 26°04' W 080°08'0 0.0
2018-Jul-07 01:25N 26°04' W 080°08'0 0.0
2018-Jul-07 00:55N 26°04' W 080°08'0 0.0
2018-Jul-07 00:25N 26°04' W 080°08'0 0.0
2018-Jul-06 23:55N 26°04' W 080°08'0 0.0
2018-Jul-06 23:22N 26°04' W 080°08'0 0.0
2018-Jul-06 22:55N 26°04' W 080°08'0 0.0
2018-Jul-06 22:28N 26°04' W 080°08'0 0.0
2018-Jul-06 21:58N 26°04' W 080°08'0 0.0
2018-Jul-06 21:28N 26°04' W 080°08'0 0.0
2018-Jul-06 20:58N 26°04' W 080°08'0 0.0
2018-Jul-06 20:28N 26°04' W 080°08'0 0.0
2018-Jul-06 19:58N 26°04' W 080°08'0 0.0
2018-Jul-06 19:28N 26°04' W 080°08'0 0.0
2018-Jul-06 18:58N 26°04' W 080°08'0 0.0
2018-Jul-06 18:28N 26°04' W 080°08'0 0.0
2018-Jul-06 17:58N 26°04' W 080°08'0 0.0
2018-Jul-06 17:28N 26°04' W 080°08'0 0.0
2018-Jul-06 16:58N 26°04' W 080°08'0 0.0
2018-Jul-06 16:28N 26°04' W 080°08'0 0.0
2018-Jul-06 15:49N 26°04' W 080°08'0 0.0
2018-Jul-06 15:19N 26°04' W 080°08'0 0.0
2018-Jul-06 14:49N 26°04' W 080°08'0 0.0
2018-Jul-06 14:22N 26°04' W 080°08'0 0.0
2018-Jul-06 13:52N 26°04' W 080°08'0 0.0
2018-Jul-06 13:22N 26°04' W 080°08'0 0.0
2018-Jul-06 12:52N 26°04' W 080°08'0 0.0
2018-Jul-06 12:22N 26°04' W 080°08'0 0.0
2018-Jul-06 11:55N 26°04' W 080°08'0 0.0
2018-Jul-06 11:25N 26°04' W 080°08'0 0.0
2018-Jul-06 10:55N 26°04' W 080°08'0 0.0
2018-Jul-06 10:25N 26°04' W 080°08'0 0.0
2018-Jul-06 09:55N 26°04' W 080°08'0 0.0
2018-Jul-06 09:25N 26°04' W 080°08'0 0.0
2018-Jul-06 08:58N 26°04' W 080°08'0 0.0
2018-Jul-06 08:28N 26°04' W 080°08'0 0.0
2018-Jul-06 07:58N 26°04' W 080°08'0 0.0
2018-Jul-06 07:28N 26°04' W 080°08'0 0.0
2018-Jul-06 06:58N 26°04' W 080°08'0 0.0
2018-Jul-06 06:28N 26°04' W 080°08'0 0.0
2018-Jul-06 05:58N 26°04' W 080°08'0 0.0
2018-Jul-06 05:28N 26°04' W 080°08'0 0.0
2018-Jul-06 04:58N 26°04' W 080°08'0 0.0
2018-Jul-06 04:28N 26°04' W 080°08'0 0.0
2018-Jul-06 03:58N 26°04' W 080°08'0 0.0
2018-Jul-06 03:28N 26°04' W 080°08'0 0.0
2018-Jul-06 02:58N 26°04' W 080°08'0 0.0
2018-Jul-06 02:28N 26°04' W 080°08'0 0.0
2018-Jul-06 01:46N 26°04' W 080°08'0 0.0
2018-Jul-06 01:22N 26°04' W 080°08'0 0.0
2018-Jul-06 00:52N 26°04' W 080°08'0 0.0
2018-Jul-06 00:22N 26°04' W 080°08'0 0.0
2018-Jul-05 23:52N 26°04' W 080°08'0 0.0
2018-Jul-05 23:22N 26°04' W 080°08'0 0.0
2018-Jul-05 22:52N 26°04' W 080°08'0 0.0
2018-Jul-05 22:22N 26°04' W 080°08'0 0.0
2018-Jul-05 21:55N 26°04' W 080°08'0 0.0
2018-Jul-05 21:25N 26°04' W 080°08'0 0.0
2018-Jul-05 20:55N 26°04' W 080°08'0 0.0
2018-Jul-05 20:25N 26°04' W 080°08'0 0.0
2018-Jul-05 18:55N 26°04' W 080°08'0 0.0
2018-Jul-05 18:28N 26°04' W 080°08'0 0.0
2018-Jul-05 17:58N 26°04' W 080°08'0 0.0
2018-Jul-05 17:28N 26°04' W 080°08'0 0.0
2018-Jul-05 16:58N 26°04' W 080°08'0 0.0
2018-Jul-05 16:28N 26°04' W 080°08'0 0.0
2018-Jul-05 15:58N 26°04' W 080°08'0 0.0
2018-Jul-05 15:28N 26°04' W 080°08'0 0.0
2018-Jul-05 14:58N 26°04' W 080°08'0 0.0
2018-Jul-05 14:28N 26°04' W 080°08'0 0.0
2018-Jul-05 13:28N 26°04' W 080°08'0 0.0
2018-Jul-05 12:58N 26°04' W 080°08'0 0.0
2018-Jul-05 12:28N 26°04' W 080°08'0 0.0
2018-Jul-05 11:49N 26°04' W 080°08'0 0.0
2018-Jul-05 11:16N 26°04' W 080°08'0 0.0
2018-Jul-05 10:46N 26°04' W 080°08'0 0.0
2018-Jul-05 10:22N 26°04' W 080°08'0 0.0
2018-Jul-05 09:52N 26°04' W 080°08'0 0.0
2018-Jul-05 09:19N 26°04' W 080°08'0 0.0
2018-Jul-05 08:52N 26°04' W 080°08'0 0.0
2018-Jul-05 08:22N 26°04' W 080°08'0 0.0
2018-Jul-05 07:55N 26°04' W 080°08'0 0.0
2018-Jul-05 07:25N 26°04' W 080°08'0 0.0
2018-Jul-05 06:55N 26°04' W 080°08'0 0.0
2018-Jul-05 06:25N 26°04' W 080°08'0 0.0
2018-Jul-05 05:55N 26°04' W 080°08'0 0.0
2018-Jul-05 05:28N 26°04' W 080°08'0 0.0
2018-Jul-05 04:58N 26°04' W 080°08'0 0.0
2018-Jul-05 04:25N 26°04' W 080°08'0 0.0
2018-Jul-05 03:58N 26°04' W 080°08'0 0.0
2018-Jul-05 03:28N 26°04' W 080°08'0 0.2
2018-Jul-05 02:56N 26°04' W 080°08'2 4.0
2018-Jul-05 02:26N 26°05' W 080°07'2 3.3
2018-Jul-05 01:55N 26°07' W 080°06'0 0.5
2018-Jul-05 01:26N 26°07' W 080°06'0 0.0
2018-Jul-05 01:00N 26°07' W 080°06'0 0.0
2018-Jul-05 00:29N 26°07' W 080°06'0 0.0
2018-Jul-05 00:00N 26°07' W 080°06'0 0.0
2018-Jul-04 23:24N 26°07' W 080°06'0 0.0
2018-Jul-04 22:54N 26°07' W 080°06'0 0.0
2018-Jul-04 22:27N 26°07' W 080°06'1 1.1
2018-Jul-04 21:52N 26°08' W 080°06'0 0.0
2018-Jul-04 21:25N 26°08' W 080°06'0 0.0
2018-Jul-04 20:55N 26°08' W 080°06'0 0.0
2018-Jul-04 20:22N 26°08' W 080°06'0 0.0
2018-Jul-04 19:55N 26°08' W 080°06'0 0.0
2018-Jul-04 19:25N 26°08' W 080°06'0 0.2
2018-Jul-04 19:00N 26°08' W 080°06'2 4.3
2018-Jul-04 18:30N 26°06' W 080°07'2 4.4
2018-Jul-04 18:00N 26°04' W 080°08'0 0.6
2018-Jul-04 17:22N 26°04' W 080°08'0 0.0
2018-Jul-04 16:52N 26°04' W 080°08'0 0.0
2018-Jul-04 16:22N 26°04' W 080°08'0 0.0
2018-Jul-04 15:52N 26°04' W 080°08'0 0.0
2018-Jul-04 15:25N 26°04' W 080°08'0 0.0
2018-Jul-04 14:55N 26°04' W 080°08'0 0.0
2018-Jul-04 14:25N 26°04' W 080°08'0 0.0
2018-Jul-04 13:55N 26°04' W 080°08'0 0.0
2018-Jul-04 13:25N 26°04' W 080°08'0 0.0
2018-Jul-04 12:55N 26°04' W 080°08'0 0.0
2018-Jul-04 12:28N 26°04' W 080°08'0 0.0
2018-Jul-04 11:58N 26°04' W 080°08'0 0.0
2018-Jul-04 11:28N 26°04' W 080°08'0 0.0
2018-Jul-04 10:58N 26°04' W 080°08'0 0.0
2018-Jul-04 10:28N 26°04' W 080°08'0 0.0
2018-Jul-04 09:58N 26°04' W 080°08'0 0.0
2018-Jul-04 09:28N 26°04' W 080°08'0 0.0
2018-Jul-04 08:46N 26°04' W 080°08'0 0.0
2018-Jul-04 08:28N 26°04' W 080°08'0 0.0
2018-Jul-04 07:58N 26°04' W 080°08'0 0.0
2018-Jul-04 07:28N 26°04' W 080°08'0 0.0
2018-Jul-04 06:58N 26°04' W 080°08'0 0.0
2018-Jul-04 06:28N 26°04' W 080°08'0 0.0
2018-Jul-04 05:49N 26°04' W 080°08'0 0.0
2018-Jul-04 05:19N 26°04' W 080°08'0 0.0
2018-Jul-04 04:52N 26°04' W 080°08'0 0.0
2018-Jul-04 04:19N 26°04' W 080°08'0 0.0
2018-Jul-04 03:52N 26°04' W 080°08'0 0.0
2018-Jul-04 03:22N 26°04' W 080°08'0 0.0
2018-Jul-04 02:52N 26°04' W 080°08'0 0.0
2018-Jul-04 02:22N 26°04' W 080°08'0 0.0
2018-Jul-04 01:55N 26°04' W 080°08'0 0.0
2018-Jul-04 01:25N 26°04' W 080°08'0 0.0
2018-Jul-04 00:55N 26°04' W 080°08'0 0.0
2018-Jul-04 00:25N 26°04' W 080°08'0 0.0
2018-Jul-03 23:55N 26°04' W 080°08'0 0.0
2018-Jul-03 23:25N 26°04' W 080°08'0 0.0
2018-Jul-03 22:58N 26°04' W 080°08'0 0.0
2018-Jul-03 22:28N 26°04' W 080°08'0 0.0
2018-Jul-03 21:58N 26°04' W 080°08'0 0.0
2018-Jul-03 21:28N 26°04' W 080°08'0 0.0
2018-Jul-03 20:58N 26°04' W 080°08'0 0.0
2018-Jul-03 20:28N 26°04' W 080°08'0 0.0
2018-Jul-03 19:58N 26°04' W 080°08'0 0.0
2018-Jul-03 19:28N 26°04' W 080°08'0 0.0
2018-Jul-03 18:58N 26°04' W 080°08'0 0.0
2018-Jul-03 18:28N 26°04' W 080°08'0 0.0
2018-Jul-03 17:46N 26°04' W 080°08'0 0.0
2018-Jul-03 17:28N 26°04' W 080°08'0 0.0
2018-Jul-03 16:58N 26°04' W 080°08'0 0.0
2018-Jul-03 16:28N 26°04' W 080°08'0 0.0
2018-Jul-03 15:49N 26°04' W 080°08'0 0.0
2018-Jul-03 15:19N 26°04' W 080°08'0 0.0
2018-Jul-03 14:52N 26°04' W 080°08'0 0.0
2018-Jul-03 14:22N 26°04' W 080°08'0 0.0
2018-Jul-03 13:52N 26°04' W 080°08'0 0.6
2018-Jul-03 13:30N 26°04' W 080°08'0 0.4
2018-Jul-03 12:59N 26°03' W 080°08'0 0.0
2018-Jul-03 12:29N 26°03' W 080°08'0 0.0
2018-Jul-03 11:50N 26°03' W 080°08'0 0.0
2018-Jul-03 11:20N 26°03' W 080°08'0 0.0
2018-Jul-03 10:47N 26°03' W 080°08'0 0.0
2018-Jul-03 10:23N 26°03' W 080°08'0 0.0
2018-Jul-03 09:53N 26°03' W 080°08'0 0.0
2018-Jul-03 09:23N 26°03' W 080°08'0 0.0
2018-Jul-03 08:53N 26°03' W 080°08'0 0.0
2018-Jul-03 08:23N 26°03' W 080°08'0 0.0
2018-Jul-03 07:53N 26°03' W 080°08'0 0.0
2018-Jul-03 07:26N 26°03' W 080°08'0 0.0
2018-Jul-03 06:56N 26°03' W 080°08'0 0.0
2018-Jul-03 06:26N 26°03' W 080°08'0 0.0
2018-Jul-03 05:56N 26°03' W 080°08'0 0.0
2018-Jul-03 05:26N 26°03' W 080°08'0 0.0
2018-Jul-03 04:59N 26°03' W 080°08'0 0.0
2018-Jul-03 04:29N 26°03' W 080°08'0 0.0
2018-Jul-03 03:59N 26°03' W 080°08'0 0.0
2018-Jul-03 03:29N 26°03' W 080°08'0 0.0
2018-Jul-03 02:59N 26°03' W 080°08'0 0.0
2018-Jul-03 02:29N 26°03' W 080°08'0 0.0
2018-Jul-03 01:59N 26°03' W 080°08'0 0.0
2018-Jul-03 01:26N 26°03' W 080°08'0 0.0
2018-Jul-03 00:59N 26°03' W 080°08'0 0.0
2018-Jul-03 00:29N 26°03' W 080°08'0 0.0
2018-Jul-02 23:59N 26°03' W 080°08'0 0.0
2018-Jul-02 23:29N 26°03' W 080°08'0 0.0
2018-Jul-02 22:59N 26°03' W 080°08'0 0.0
2018-Jul-02 22:29N 26°03' W 080°08'0 0.0
2018-Jul-02 21:50N 26°03' W 080°08'0 0.0
2018-Jul-02 21:20N 26°03' W 080°08'0 0.0
2018-Jul-02 20:50N 26°03' W 080°08'0 0.0
2018-Jul-02 20:23N 26°03' W 080°08'0 0.0
2018-Jul-02 19:53N 26°03' W 080°08'0 0.0
2018-Jul-02 19:23N 26°03' W 080°08'0 0.0
2018-Jul-02 18:53N 26°03' W 080°08'0 0.0
2018-Jul-02 18:23N 26°03' W 080°08'0 0.0
2018-Jul-02 17:56N 26°03' W 080°08'0 0.0
2018-Jul-02 17:26N 26°03' W 080°08'0 0.0
2018-Jul-02 16:56N 26°03' W 080°08'0 0.0
2018-Jul-02 16:26N 26°03' W 080°08'0 0.0
2018-Jul-02 15:53N 26°03' W 080°08'0 0.0
2018-Jul-02 15:26N 26°03' W 080°08'0 0.0
2018-Jul-02 14:59N 26°03' W 080°08'0 0.0
2018-Jul-02 14:29N 26°03' W 080°08'0 0.0
2018-Jul-02 13:59N 26°03' W 080°08'0 0.0
2018-Jul-02 13:29N 26°03' W 080°08'  
Track history (hours):
 
Tides and Currents Weather Stations Pressure Air Temp Water Temp Dewpoint Dewpoint Depression Visibility Wind Speed Wind Dir Waves Ship Positions

Toes In The Water

Owner: DKC Sailing LLC, Boxford, MA. More information available from US FCC via Universal Licensing System.

Last reported at 2018-Jul-12 13:09 UTC. Time now 2018-Aug-14 07:03 UTC.
Position N 25°42' W 079°56'.
Warning: this ship's position is 32 days out of date.

Length 14 m.

Type: Sailing vessel. MMSI: 367758910.

Date/timePositionNaut miles runAvg speedWind from/ knotsBaromVisibWave heightAir tempDewpointWater temp
2018-Jul-12 13:09N 25°42' W 079°56'1 5.4
2018-Jul-12 12:56N 25°42' W 079°57'3 6.2
2018-Jul-12 12:26N 25°40' W 080°00'2 5.8
2018-Jul-12 12:00N 25°40' W 080°03'3 5.2
2018-Jul-12 11:30N 25°39' W 080°06'3 5.0
2018-Jul-12 10:57N 25°39' W 080°09'2 4.1
2018-Jul-12 10:30N 25°40' W 080°10'0 0.3
2018-Jul-12 09:54N 25°40' W 080°10'0 0.0
2018-Jul-12 09:30N 25°40' W 080°10'0 0.0
2018-Jul-12 08:57N 25°40' W 080°10'0 0.0
2018-Jul-12 08:30N 25°40' W 080°10'0 0.0
2018-Jul-12 08:00N 25°40' W 080°10'0 0.0
2018-Jul-12 07:30N 25°40' W 080°10'0 0.0
2018-Jul-12 07:00N 25°40' W 080°10'0 0.0
2018-Jul-12 06:30N 25°40' W 080°10'0 0.0
2018-Jul-12 05:21N 25°40' W 080°10'0 0.0
2018-Jul-12 05:00N 25°40' W 080°10'0 0.0
2018-Jul-12 04:30N 25°40' W 080°10'0 0.0
2018-Jul-12 03:09N 25°40' W 080°10'0 0.0
2018-Jul-12 03:00N 25°40' W 080°10'0 0.0
2018-Jul-12 02:30N 25°40' W 080°10'0 0.0
2018-Jul-12 01:57N 25°40' W 080°10'0 0.0
2018-Jul-12 01:30N 25°40' W 080°10'0 0.0
2018-Jul-12 01:00N 25°40' W 080°10'0 0.0
2018-Jul-12 00:30N 25°40' W 080°10'0 0.1
2018-Jul-11 23:57N 25°40' W 080°10'0 0.0
2018-Jul-11 23:27N 25°40' W 080°10'0 0.0
2018-Jul-11 23:00N 25°40' W 080°10'0 0.0
2018-Jul-11 22:27N 25°40' W 080°10'0 0.0
2018-Jul-11 21:41N 25°40' W 080°10'0 1.3
2018-Jul-11 21:30N 25°41' W 080°10'1 2.9
2018-Jul-11 21:00N 25°39' W 080°09'2 4.4
2018-Jul-11 20:30N 25°41' W 080°08'3 6.5
2018-Jul-11 20:00N 25°44' W 080°07'3 6.0
2018-Jul-11 19:28N 25°47' W 080°06'3 5.9
2018-Jul-11 19:00N 25°50' W 080°06'3 6.1
2018-Jul-11 18:30N 25°53' W 080°06'3 5.9
2018-Jul-11 18:00N 25°56' W 080°06'4 6.4
2018-Jul-11 17:23N 26°00' W 080°06'3 6.7
2018-Jul-11 17:00N 26°03' W 080°06'3 5.7
2018-Jul-11 16:30N 26°06' W 080°07'2 4.4
2018-Jul-11 16:00N 26°04' W 080°08'0 0.4
2018-Jul-11 15:21N 26°04' W 080°08'0 0.0
2018-Jul-11 14:58N 26°04' W 080°08'0 0.0
2018-Jul-11 14:28N 26°04' W 080°08'0 0.0
2018-Jul-11 13:58N 26°04' W 080°08'0 0.0
2018-Jul-11 13:28N 26°04' W 080°08'0 0.0
2018-Jul-11 12:58N 26°04' W 080°08'0 0.0
2018-Jul-11 12:28N 26°04' W 080°08'0 0.0
2018-Jul-11 11:58N 26°04' W 080°08'0 0.0
2018-Jul-11 11:28N 26°04' W 080°08'0 0.0
2018-Jul-11 10:58N 26°04' W 080°08'0 0.0
2018-Jul-11 10:19N 26°04' W 080°08'0 0.0
2018-Jul-11 09:49N 26°04' W 080°08'0 0.0
2018-Jul-11 09:22N 26°04' W 080°08'0 0.0
2018-Jul-11 08:52N 26°04' W 080°08'0 0.0
2018-Jul-11 08:19N 26°04' W 080°08'0 0.0
2018-Jul-11 07:52N 26°04' W 080°08'0 0.0
2018-Jul-11 07:22N 26°04' W 080°08'0 0.0
2018-Jul-11 06:52N 26°04' W 080°08'0 0.0
2018-Jul-11 06:22N 26°04' W 080°08'0 0.0
2018-Jul-11 05:55N 26°04' W 080°08'0 0.0
2018-Jul-11 05:25N 26°04' W 080°08'0 0.0
2018-Jul-11 04:55N 26°04' W 080°08'0 0.0
2018-Jul-11 04:25N 26°04' W 080°08'0 0.0
2018-Jul-11 03:55N 26°04' W 080°08'0 0.0
2018-Jul-11 03:25N 26°04' W 080°08'0 0.0
2018-Jul-11 02:58N 26°04' W 080°08'0 0.0
2018-Jul-11 02:28N 26°04' W 080°08'0 0.0
2018-Jul-11 01:58N 26°04' W 080°08'0 0.0
2018-Jul-11 01:28N 26°04' W 080°08'0 0.0
2018-Jul-11 00:58N 26°04' W 080°08'0 0.0
2018-Jul-11 00:28N 26°04' W 080°08'0 0.0
2018-Jul-10 23:58N 26°04' W 080°08'0 0.0
2018-Jul-10 23:28N 26°04' W 080°08'0 0.0
2018-Jul-10 22:58N 26°04' W 080°08'0 0.0
2018-Jul-10 22:28N 26°04' W 080°08'0 0.0
2018-Jul-10 21:58N 26°04' W 080°08'0 0.0
2018-Jul-10 21:28N 26°04' W 080°08'0 0.0
2018-Jul-10 20:58N 26°04' W 080°08'0 0.0
2018-Jul-10 20:19N 26°04' W 080°08'0 0.0
2018-Jul-10 19:49N 26°04' W 080°08'0 0.0
2018-Jul-10 19:19N 26°04' W 080°08'0 0.0
2018-Jul-10 18:52N 26°04' W 080°08'0 0.0
2018-Jul-10 18:22N 26°04' W 080°08'0 0.0
2018-Jul-10 17:52N 26°04' W 080°08'0 0.0
2018-Jul-10 17:22N 26°04' W 080°08'0 0.0
2018-Jul-10 16:52N 26°04' W 080°08'0 0.0
2018-Jul-10 16:22N 26°04' W 080°08'0 0.0
2018-Jul-10 15:55N 26°04' W 080°08'0 0.0
2018-Jul-10 15:25N 26°04' W 080°08'0 0.0
2018-Jul-10 14:55N 26°04' W 080°08'0 0.0
2018-Jul-10 14:25N 26°04' W 080°08'0 0.0
2018-Jul-10 13:55N 26°04' W 080°08'0 0.0
2018-Jul-10 13:25N 26°04' W 080°08'0 0.0
2018-Jul-10 12:58N 26°04' W 080°08'0 0.0
2018-Jul-10 12:28N 26°04' W 080°08'0 0.0
2018-Jul-10 11:58N 26°04' W 080°08'0 0.0
2018-Jul-10 11:19N 26°04' W 080°08'0 0.0
2018-Jul-10 10:52N 26°04' W 080°08'0 0.0
2018-Jul-10 10:25N 26°04' W 080°08'0 0.0
2018-Jul-10 09:55N 26°04' W 080°08'0 0.0
2018-Jul-10 09:25N 26°04' W 080°08'0 0.0
2018-Jul-10 08:55N 26°04' W 080°08'0 0.0
2018-Jul-10 08:25N 26°04' W 080°08'0 0.0
2018-Jul-10 07:55N 26°04' W 080°08'0 0.0
2018-Jul-10 07:28N 26°04' W 080°08'0 0.0
2018-Jul-10 06:58N 26°04' W 080°08'0 0.0
2018-Jul-10 06:28N 26°04' W 080°08'0 0.0
2018-Jul-10 05:58N 26°04' W 080°08'0 0.0
2018-Jul-10 05:28N 26°04' W 080°08'0 0.0
2018-Jul-10 04:58N 26°04' W 080°08'0 0.0
2018-Jul-10 04:28N 26°04' W 080°08'0 0.0
2018-Jul-10 03:58N 26°04' W 080°08'0 0.0
2018-Jul-10 03:28N 26°04' W 080°08'0 0.0
2018-Jul-10 02:49N 26°04' W 080°08'0 0.0
2018-Jul-10 02:28N 26°04' W 080°08'0 0.0
2018-Jul-10 01:58N 26°04' W 080°08'0 0.0
2018-Jul-10 01:28N 26°04' W 080°08'0 0.0
2018-Jul-10 00:58N 26°04' W 080°08'0 0.0
2018-Jul-10 00:16N 26°04' W 080°08'0 0.0
2018-Jul-09 23:49N 26°04' W 080°08'0 0.0
2018-Jul-09 23:22N 26°04' W 080°08'0 0.0
2018-Jul-09 22:52N 26°04' W 080°08'0 0.0
2018-Jul-09 22:22N 26°04' W 080°08'0 0.0
2018-Jul-09 21:52N 26°04' W 080°08'0 0.0
2018-Jul-09 21:22N 26°04' W 080°08'0 0.0
2018-Jul-09 20:52N 26°04' W 080°08'0 0.0
2018-Jul-09 20:25N 26°04' W 080°08'0 0.0
2018-Jul-09 19:55N 26°04' W 080°08'0 0.0
2018-Jul-09 19:25N 26°04' W 080°08'0 0.0
2018-Jul-09 18:55N 26°04' W 080°08'0 0.0
2018-Jul-09 18:25N 26°04' W 080°08'0 0.0
2018-Jul-09 17:55N 26°04' W 080°08'0 0.0
2018-Jul-09 17:28N 26°04' W 080°08'0 0.0
2018-Jul-09 16:58N 26°04' W 080°08'0 0.0
2018-Jul-09 16:28N 26°04' W 080°08'0 0.0
2018-Jul-09 15:58N 26°04' W 080°08'0 0.0
2018-Jul-09 15:25N 26°04' W 080°08'0 0.0
2018-Jul-09 14:58N 26°04' W 080°08'0 0.0
2018-Jul-09 14:28N 26°04' W 080°08'0 0.0
2018-Jul-09 13:58N 26°04' W 080°08'0 0.0
2018-Jul-09 13:28N 26°04' W 080°08'0 0.0
2018-Jul-09 12:58N 26°04' W 080°08'0 0.0
2018-Jul-09 12:28N 26°04' W 080°08'0 0.0
2018-Jul-09 11:58N 26°04' W 080°08'0 0.0
2018-Jul-09 11:28N 26°04' W 080°08'0 0.0
2018-Jul-09 10:58N 26°04' W 080°08'0 0.0
2018-Jul-09 10:19N 26°04' W 080°08'0 0.0
2018-Jul-09 09:49N 26°04' W 080°08'0 0.0
2018-Jul-09 09:22N 26°04' W 080°08'0 0.0
2018-Jul-09 08:52N 26°04' W 080°08'0 0.0
2018-Jul-09 08:22N 26°04' W 080°08'0 0.0
2018-Jul-09 07:52N 26°04' W 080°08'0 0.0
2018-Jul-09 07:22N 26°04' W 080°08'0 0.0
2018-Jul-09 06:55N 26°04' W 080°08'0 0.0
2018-Jul-09 06:25N 26°04' W 080°08'0 0.0
2018-Jul-09 05:55N 26°04' W 080°08'0 0.0
2018-Jul-09 05:25N 26°04' W 080°08'0 0.0
2018-Jul-09 04:55N 26°04' W 080°08'0 0.0
2018-Jul-09 04:22N 26°04' W 080°08'0 0.0
2018-Jul-09 03:58N 26°04' W 080°08'0 0.0
2018-Jul-09 03:28N 26°04' W 080°08'0 0.0
2018-Jul-09 02:58N 26°04' W 080°08'0 0.0
2018-Jul-09 02:28N 26°04' W 080°08'0 0.0
2018-Jul-09 01:58N 26°04' W 080°08'0 0.0
2018-Jul-09 01:28N 26°04' W 080°08'0 0.0
2018-Jul-09 00:58N 26°04' W 080°08'0 0.0
2018-Jul-09 00:28N 26°04' W 080°08'0 0.0
2018-Jul-08 23:58N 26°04' W 080°08'0 0.0
2018-Jul-08 23:28N 26°04' W 080°08'0 0.0
2018-Jul-08 22:58N 26°04' W 080°08'1 2.4
2018-Jul-08 22:30N 26°04' W 080°07'2 5.0
2018-Jul-08 22:00N 26°06' W 080°06'1 2.1
2018-Jul-08 21:29N 26°08' W 080°06'0 0.0
2018-Jul-08 20:59N 26°08' W 080°06'2 3.7
2018-Jul-08 20:26N 26°10' W 080°05'1 2.4
2018-Jul-08 19:55N 26°08' W 080°06'2 4.4
2018-Jul-08 19:25N 26°06' W 080°06'1 2.9
2018-Jul-08 18:55N 26°05' W 080°07'2 3.7
2018-Jul-08 18:25N 26°04' W 080°08'0 0.0
2018-Jul-08 17:55N 26°04' W 080°08'0 0.0
2018-Jul-08 17:25N 26°04' W 080°08'0 0.0
2018-Jul-08 16:55N 26°04' W 080°08'0 0.0
2018-Jul-08 16:28N 26°04' W 080°08'0 0.0
2018-Jul-08 15:58N 26°04' W 080°08'0 0.0
2018-Jul-08 15:28N 26°04' W 080°08'0 0.0
2018-Jul-08 14:58N 26°04' W 080°08'0 0.0
2018-Jul-08 14:28N 26°04' W 080°08'0 0.0
2018-Jul-08 13:58N 26°04' W 080°08'0 0.0
2018-Jul-08 13:28N 26°04' W 080°08'0 0.0
2018-Jul-08 12:58N 26°04' W 080°08'0 0.0
2018-Jul-08 12:28N 26°04' W 080°08'0 0.0
2018-Jul-08 11:58N 26°04' W 080°08'0 0.0
2018-Jul-08 11:28N 26°04' W 080°08'0 0.0
2018-Jul-08 10:58N 26°04' W 080°08'0 0.0
2018-Jul-08 10:19N 26°04' W 080°08'0 0.0
2018-Jul-08 09:58N 26°04' W 080°08'0 0.0
2018-Jul-08 09:19N 26°04' W 080°08'0 0.0
2018-Jul-08 08:49N 26°04' W 080°08'0 0.0
2018-Jul-08 08:16N 26°04' W 080°08'0 0.0
2018-Jul-08 07:52N 26°04' W 080°08'0 0.0
2018-Jul-08 07:22N 26°04' W 080°08'0 0.0
2018-Jul-08 06:52N 26°04' W 080°08'0 0.0
2018-Jul-08 06:22N 26°04' W 080°08'0 0.0
2018-Jul-08 05:52N 26°04' W 080°08'0 0.0
2018-Jul-08 05:25N 26°04' W 080°08'0 0.0
2018-Jul-08 04:55N 26°04' W 080°08'0 0.0
2018-Jul-08 04:25N 26°04' W 080°08'0 0.0
2018-Jul-08 03:55N 26°04' W 080°08'0 0.0
2018-Jul-08 03:25N 26°04' W 080°08'0 0.0
2018-Jul-08 02:55N 26°04' W 080°08'0 0.0
2018-Jul-08 02:28N 26°04' W 080°08'0 0.0
2018-Jul-08 01:58N 26°04' W 080°08'0 0.0
2018-Jul-08 01:28N 26°04' W 080°08'0 0.0
2018-Jul-08 00:58N 26°04' W 080°08'0 0.0
2018-Jul-08 00:28N 26°04' W 080°08'0 0.0
2018-Jul-07 23:58N 26°04' W 080°08'0 0.0
2018-Jul-07 23:28N 26°04' W 080°08'0 0.0
2018-Jul-07 22:58N 26°04' W 080°08'0 0.0
2018-Jul-07 22:28N 26°04' W 080°08'0 0.0
2018-Jul-07 21:58N 26°04' W 080°08'0 0.0
2018-Jul-07 21:19N 26°04' W 080°08'0 0.0
2018-Jul-07 20:58N 26°04' W 080°08'0 0.0
2018-Jul-07 20:28N 26°04' W 080°08'0 0.0
2018-Jul-07 19:49N 26°04' W 080°08'0 0.0
2018-Jul-07 19:19N 26°04' W 080°08'0 0.0
2018-Jul-07 18:49N 26°04' W 080°08'0 0.0
2018-Jul-07 18:22N 26°04' W 080°08'0 0.0
2018-Jul-07 17:52N 26°04' W 080°08'0 0.0
2018-Jul-07 17:22N 26°04' W 080°08'0 0.0
2018-Jul-07 16:52N 26°04' W 080°08'0 0.0
2018-Jul-07 16:22N 26°04' W 080°08'0 0.0
2018-Jul-07 15:52N 26°04' W 080°08'0 0.0
2018-Jul-07 15:25N 26°04' W 080°08'0 0.0
2018-Jul-07 14:55N 26°04' W 080°08'0 0.0
2018-Jul-07 14:25N 26°04' W 080°08'0 0.0
2018-Jul-07 13:55N 26°04' W 080°08'0 0.0
2018-Jul-07 13:25N 26°04' W 080°08'0 0.0
2018-Jul-07 12:55N 26°04' W 080°08'0 0.0
2018-Jul-07 12:28N 26°04' W 080°08'0 0.0
2018-Jul-07 11:58N 26°04' W 080°08'0 0.0
2018-Jul-07 11:28N 26°04' W 080°08'0 0.0
2018-Jul-07 10:58N 26°04' W 080°08'0 0.0
2018-Jul-07 10:28N 26°04' W 080°08'0 0.0
2018-Jul-07 09:58N 26°04' W 080°08'0 0.0
2018-Jul-07 09:28N 26°04' W 080°08'0 0.0
2018-Jul-07 08:58N 26°04' W 080°08'0 0.0
2018-Jul-07 08:28N 26°04' W 080°08'0 0.0
2018-Jul-07 07:58N 26°04' W 080°08'0 0.0
2018-Jul-07 07:28N 26°04' W 080°08'0 0.0
2018-Jul-07 06:49N 26°04' W 080°08'0 0.0
2018-Jul-07 06:28N 26°04' W 080°08'0 0.0
2018-Jul-07 05:49N 26°04' W 080°08'0 0.0
2018-Jul-07 05:19N 26°04' W 080°08'0 0.0
2018-Jul-07 04:49N 26°04' W 080°08'0 0.0
2018-Jul-07 04:22N 26°04' W 080°08'0 0.0
2018-Jul-07 03:52N 26°04' W 080°08'0 0.0
2018-Jul-07 03:22N 26°04' W 080°08'0 0.0
2018-Jul-07 02:52N 26°04' W 080°08'0 0.0
2018-Jul-07 02:22N 26°04' W 080°08'0 0.0
2018-Jul-07 01:49N 26°04' W 080°08'0 0.0
2018-Jul-07 01:25N 26°04' W 080°08'0 0.0
2018-Jul-07 00:55N 26°04' W 080°08'0 0.0
2018-Jul-07 00:25N 26°04' W 080°08'0 0.0
2018-Jul-06 23:55N 26°04' W 080°08'0 0.0
2018-Jul-06 23:22N 26°04' W 080°08'0 0.0
2018-Jul-06 22:55N 26°04' W 080°08'0 0.0
2018-Jul-06 22:28N 26°04' W 080°08'0 0.0
2018-Jul-06 21:58N 26°04' W 080°08'0 0.0
2018-Jul-06 21:28N 26°04' W 080°08'0 0.0
2018-Jul-06 20:58N 26°04' W 080°08'0 0.0
2018-Jul-06 20:28N 26°04' W 080°08'0 0.0
2018-Jul-06 19:58N 26°04' W 080°08'0 0.0
2018-Jul-06 19:28N 26°04' W 080°08'0 0.0
2018-Jul-06 18:58N 26°04' W 080°08'0 0.0
2018-Jul-06 18:28N 26°04' W 080°08'0 0.0
2018-Jul-06 17:58N 26°04' W 080°08'0 0.0
2018-Jul-06 17:28N 26°04' W 080°08'0 0.0
2018-Jul-06 16:58N 26°04' W 080°08'0 0.0
2018-Jul-06 16:28N 26°04' W 080°08'0 0.0
2018-Jul-06 15:49N 26°04' W 080°08'0 0.0
2018-Jul-06 15:19N 26°04' W 080°08'0 0.0
2018-Jul-06 14:49N 26°04' W 080°08'0 0.0
2018-Jul-06 14:22N 26°04' W 080°08'0 0.0
2018-Jul-06 13:52N 26°04' W 080°08'0 0.0
2018-Jul-06 13:22N 26°04' W 080°08'0 0.0
2018-Jul-06 12:52N 26°04' W 080°08'0 0.0
2018-Jul-06 12:22N 26°04' W 080°08'0 0.0
2018-Jul-06 11:55N 26°04' W 080°08'0 0.0
2018-Jul-06 11:25N 26°04' W 080°08'0 0.0
2018-Jul-06 10:55N 26°04' W 080°08'0 0.0
2018-Jul-06 10:25N 26°04' W 080°08'0 0.0
2018-Jul-06 09:55N 26°04' W 080°08'0 0.0
2018-Jul-06 09:25N 26°04' W 080°08'0 0.0
2018-Jul-06 08:58N 26°04' W 080°08'0 0.0
2018-Jul-06 08:28N 26°04' W 080°08'0 0.0
2018-Jul-06 07:58N 26°04' W 080°08'0 0.0
2018-Jul-06 07:28N 26°04' W 080°08'0 0.0
2018-Jul-06 06:58N 26°04' W 080°08'0 0.0
2018-Jul-06 06:28N 26°04' W 080°08'0 0.0
2018-Jul-06 05:58N 26°04' W 080°08'0 0.0
2018-Jul-06 05:28N 26°04' W 080°08'0 0.0
2018-Jul-06 04:58N 26°04' W 080°08'0 0.0
2018-Jul-06 04:28N 26°04' W 080°08'0 0.0
2018-Jul-06 03:58N 26°04' W 080°08'0 0.0
2018-Jul-06 03:28N 26°04' W 080°08'0 0.0
2018-Jul-06 02:58N 26°04' W 080°08'0 0.0
2018-Jul-06 02:28N 26°04' W 080°08'0 0.0
2018-Jul-06 01:46N 26°04' W 080°08'0 0.0
2018-Jul-06 01:22N 26°04' W 080°08'0 0.0
2018-Jul-06 00:52N 26°04' W 080°08'0 0.0
2018-Jul-06 00:22N 26°04' W 080°08'0 0.0
2018-Jul-05 23:52N 26°04' W 080°08'0 0.0
2018-Jul-05 23:22N 26°04' W 080°08'0 0.0
2018-Jul-05 22:52N 26°04' W 080°08'0 0.0
2018-Jul-05 22:22N 26°04' W 080°08'0 0.0
2018-Jul-05 21:55N 26°04' W 080°08'0 0.0
2018-Jul-05 21:25N 26°04' W 080°08'0 0.0
2018-Jul-05 20:55N 26°04' W 080°08'0 0.0
2018-Jul-05 20:25N 26°04' W 080°08'0 0.0
2018-Jul-05 18:55N 26°04' W 080°08'0 0.0
2018-Jul-05 18:28N 26°04' W 080°08'0 0.0
2018-Jul-05 17:58N 26°04' W 080°08'0 0.0
2018-Jul-05 17:28N 26°04' W 080°08'0 0.0
2018-Jul-05 16:58N 26°04' W 080°08'0 0.0
2018-Jul-05 16:28N 26°04' W 080°08'0 0.0
2018-Jul-05 15:58N 26°04' W 080°08'0 0.0
2018-Jul-05 15:28N 26°04' W 080°08'0 0.0
2018-Jul-05 14:58N 26°04' W 080°08'0 0.0
2018-Jul-05 14:28N 26°04' W 080°08'0 0.0
2018-Jul-05 13:28N 26°04' W 080°08'0 0.0
2018-Jul-05 12:58N 26°04' W 080°08'0 0.0
2018-Jul-05 12:28N 26°04' W 080°08'0 0.0
2018-Jul-05 11:49N 26°04' W 080°08'0 0.0
2018-Jul-05 11:16N 26°04' W 080°08'0 0.0
2018-Jul-05 10:46N 26°04' W 080°08'0 0.0
2018-Jul-05 10:22N 26°04' W 080°08'0 0.0
2018-Jul-05 09:52N 26°04' W 080°08'0 0.0
2018-Jul-05 09:19N 26°04' W 080°08'0 0.0
2018-Jul-05 08:52N 26°04' W 080°08'0 0.0
2018-Jul-05 08:22N 26°04' W 080°08'0 0.0
2018-Jul-05 07:55N 26°04' W 080°08'0 0.0
2018-Jul-05 07:25N 26°04' W 080°08'0 0.0
2018-Jul-05 06:55N 26°04' W 080°08'0 0.0
2018-Jul-05 06:25N 26°04' W 080°08'0 0.0
2018-Jul-05 05:55N 26°04' W 080°08'0 0.0
2018-Jul-05 05:28N 26°04' W 080°08'0 0.0
2018-Jul-05 04:58N 26°04' W 080°08'0 0.0
2018-Jul-05 04:25N 26°04' W 080°08'0 0.0
2018-Jul-05 03:58N 26°04' W 080°08'0 0.0
2018-Jul-05 03:28N 26°04' W 080°08'0 0.2
2018-Jul-05 02:56N 26°04' W 080°08'2 4.0
2018-Jul-05 02:26N 26°05' W 080°07'2 3.3
2018-Jul-05 01:55N 26°07' W 080°06'0 0.5
2018-Jul-05 01:26N 26°07' W 080°06'0 0.0
2018-Jul-05 01:00N 26°07' W 080°06'0 0.0
2018-Jul-05 00:29N 26°07' W 080°06'0 0.0
2018-Jul-05 00:00N 26°07' W 080°06'0 0.0
2018-Jul-04 23:24N 26°07' W 080°06'0 0.0
2018-Jul-04 22:54N 26°07' W 080°06'0 0.0
2018-Jul-04 22:27N 26°07' W 080°06'1 1.1
2018-Jul-04 21:52N 26°08' W 080°06'0 0.0
2018-Jul-04 21:25N 26°08' W 080°06'0 0.0
2018-Jul-04 20:55N 26°08' W 080°06'0 0.0
2018-Jul-04 20:22N 26°08' W 080°06'0 0.0
2018-Jul-04 19:55N 26°08' W 080°06'0 0.0
2018-Jul-04 19:25N 26°08' W 080°06'0 0.2
2018-Jul-04 19:00N 26°08' W 080°06'2 4.3
2018-Jul-04 18:30N 26°06' W 080°07'2 4.4
2018-Jul-04 18:00N 26°04' W 080°08'0 0.6
2018-Jul-04 17:22N 26°04' W 080°08'0 0.0
2018-Jul-04 16:52N 26°04' W 080°08'0 0.0
2018-Jul-04 16:22N 26°04' W 080°08'0 0.0
2018-Jul-04 15:52N 26°04' W 080°08'0 0.0
2018-Jul-04 15:25N 26°04' W 080°08'0 0.0
2018-Jul-04 14:55N 26°04' W 080°08'0 0.0
2018-Jul-04 14:25N 26°04' W 080°08'0 0.0
2018-Jul-04 13:55N 26°04' W 080°08'0 0.0
2018-Jul-04 13:25N 26°04' W 080°08'0 0.0
2018-Jul-04 12:55N 26°04' W 080°08'0 0.0
2018-Jul-04 12:28N 26°04' W 080°08'0 0.0
2018-Jul-04 11:58N 26°04' W 080°08'0 0.0
2018-Jul-04 11:28N 26°04' W 080°08'0 0.0
2018-Jul-04 10:58N 26°04' W 080°08'0 0.0
2018-Jul-04 10:28N 26°04' W 080°08'0 0.0
2018-Jul-04 09:58N 26°04' W 080°08'0 0.0
2018-Jul-04 09:28N 26°04' W 080°08'0 0.0
2018-Jul-04 08:46N 26°04' W 080°08'0 0.0
2018-Jul-04 08:28N 26°04' W 080°08'0 0.0
2018-Jul-04 07:58N 26°04' W 080°08'0 0.0
2018-Jul-04 07:28N 26°04' W 080°08'0 0.0
2018-Jul-04 06:58N 26°04' W 080°08'0 0.0
2018-Jul-04 06:28N 26°04' W 080°08'0 0.0
2018-Jul-04 05:49N 26°04' W 080°08'0 0.0
2018-Jul-04 05:19N 26°04' W 080°08'0 0.0
2018-Jul-04 04:52N 26°04' W 080°08'0 0.0
2018-Jul-04 04:19N 26°04' W 080°08'0 0.0
2018-Jul-04 03:52N 26°04' W 080°08'0 0.0
2018-Jul-04 03:22N 26°04' W 080°08'0 0.0
2018-Jul-04 02:52N 26°04' W 080°08'0 0.0
2018-Jul-04 02:22N 26°04' W 080°08'0 0.0
2018-Jul-04 01:55N 26°04' W 080°08'0 0.0
2018-Jul-04 01:25N 26°04' W 080°08'0 0.0
2018-Jul-04 00:55N 26°04' W 080°08'0 0.0
2018-Jul-04 00:25N 26°04' W 080°08'0 0.0
2018-Jul-03 23:55N 26°04' W 080°08'0 0.0
2018-Jul-03 23:25N 26°04' W 080°08'0 0.0
2018-Jul-03 22:58N 26°04' W 080°08'0 0.0
2018-Jul-03 22:28N 26°04' W 080°08'0 0.0
2018-Jul-03 21:58N 26°04' W 080°08'0 0.0
2018-Jul-03 21:28N 26°04' W 080°08'0 0.0
2018-Jul-03 20:58N 26°04' W 080°08'0 0.0
2018-Jul-03 20:28N 26°04' W 080°08'0 0.0
2018-Jul-03 19:58N 26°04' W 080°08'0 0.0
2018-Jul-03 19:28N 26°04' W 080°08'0 0.0
2018-Jul-03 18:58N 26°04' W 080°08'0 0.0
2018-Jul-03 18:28N 26°04' W 080°08'0 0.0
2018-Jul-03 17:46N 26°04' W 080°08'0 0.0
2018-Jul-03 17:28N 26°04' W 080°08'0 0.0
2018-Jul-03 16:58N 26°04' W 080°08'0 0.0
2018-Jul-03 16:28N 26°04' W 080°08'0 0.0
2018-Jul-03 15:49N 26°04' W 080°08'0 0.0
2018-Jul-03 15:19N 26°04' W 080°08'0 0.0
2018-Jul-03 14:52N 26°04' W 080°08'0 0.0
2018-Jul-03 14:22N 26°04' W 080°08'0 0.0
2018-Jul-03 13:52N 26°04' W 080°08'0 0.6
2018-Jul-03 13:30N 26°04' W 080°08'0 0.4
2018-Jul-03 12:59N 26°03' W 080°08'0 0.0
2018-Jul-03 12:29N 26°03' W 080°08'0 0.0
2018-Jul-03 11:50N 26°03' W 080°08'0 0.0
2018-Jul-03 11:20N 26°03' W 080°08'0 0.0
2018-Jul-03 10:47N 26°03' W 080°08'0 0.0
2018-Jul-03 10:23N 26°03' W 080°08'0 0.0
2018-Jul-03 09:53N 26°03' W 080°08'0 0.0
2018-Jul-03 09:23N 26°03' W 080°08'0 0.0
2018-Jul-03 08:53N 26°03' W 080°08'0 0.0
2018-Jul-03 08:23N 26°03' W 080°08'0 0.0
2018-Jul-03 07:53N 26°03' W 080°08'0 0.0
2018-Jul-03 07:26N 26°03' W 080°08'0 0.0
2018-Jul-03 06:56N 26°03' W 080°08'0 0.0
2018-Jul-03 06:26N 26°03' W 080°08'0 0.0
2018-Jul-03 05:56N 26°03' W 080°08'0 0.0
2018-Jul-03 05:26N 26°03' W 080°08'0 0.0
2018-Jul-03 04:59N 26°03' W 080°08'0 0.0
2018-Jul-03 04:29N 26°03' W 080°08'0 0.0
2018-Jul-03 03:59N 26°03' W 080°08'0 0.0
2018-Jul-03 03:29N 26°03' W 080°08'0 0.0
2018-Jul-03 02:59N 26°03' W 080°08'0 0.0
2018-Jul-03 02:29N 26°03' W 080°08'0 0.0
2018-Jul-03 01:59N 26°03' W 080°08'0 0.0
2018-Jul-03 01:26N 26°03' W 080°08'0 0.0
2018-Jul-03 00:59N 26°03' W 080°08'0 0.0
2018-Jul-03 00:29N 26°03' W 080°08'0 0.0
2018-Jul-02 23:59N 26°03' W 080°08'0 0.0
2018-Jul-02 23:29N 26°03' W 080°08'0 0.0
2018-Jul-02 22:59N 26°03' W 080°08'0 0.0
2018-Jul-02 22:29N 26°03' W 080°08'0 0.0
2018-Jul-02 21:50N 26°03' W 080°08'0 0.0
2018-Jul-02 21:20N 26°03' W 080°08'0 0.0
2018-Jul-02 20:50N 26°03' W 080°08'0 0.0
2018-Jul-02 20:23N 26°03' W 080°08'0 0.0
2018-Jul-02 19:53N 26°03' W 080°08'0 0.0
2018-Jul-02 19:23N 26°03' W 080°08'0 0.0
2018-Jul-02 18:53N 26°03' W 080°08'0 0.0
2018-Jul-02 18:23N 26°03' W 080°08'0 0.0
2018-Jul-02 17:56N 26°03' W 080°08'0 0.0
2018-Jul-02 17:26N 26°03' W 080°08'0 0.0
2018-Jul-02 16:56N 26°03' W 080°08'0 0.0
2018-Jul-02 16:26N 26°03' W 080°08'0 0.0
2018-Jul-02 15:53N 26°03' W 080°08'0 0.0
2018-Jul-02 15:26N 26°03' W 080°08'0 0.0
2018-Jul-02 14:59N 26°03' W 080°08'0 0.0
2018-Jul-02 14:29N 26°03' W 080°08'0 0.0
2018-Jul-02 13:59N 26°03' W 080°08'0 0.0
2018-Jul-02 13:29N 26°03' W 080°08'  

Dump ship's entire track history